sensor_id;sensor_type;location;lat;lon;timestamp;pressure;altitude;pressure_sealevel;temperature
18713;BMP280;9485;49.386;8.674;2023-02-15T00:05:08;101964.19;;;5.09
18713;BMP280;9485;49.386;8.674;2023-02-15T00:10:28;101964.19;;;5.09
18713;BMP280;9485;49.386;8.674;2023-02-15T00:15:49;101955.41;;;5.07
18713;BMP280;9485;49.386;8.674;2023-02-15T00:21:11;101963.81;;;5.07
18713;BMP280;9485;49.386;8.674;2023-02-15T00:26:32;101947.78;;;5.07
18713;BMP280;9485;49.386;8.674;2023-02-15T00:31:53;101942.56;;;5.09
18713;BMP280;9485;49.386;8.674;2023-02-15T00:37:14;101948.13;;;5.13
18713;BMP280;9485;49.386;8.674;2023-02-15T00:42:35;101948.88;;;5.13
18713;BMP280;9485;49.386;8.674;2023-02-15T00:47:56;101954.13;;;5.11
18713;BMP280;9485;49.386;8.674;2023-02-15T00:53:19;101932.53;;;5.12
18713;BMP280;9485;49.386;8.674;2023-02-15T00:58:40;101931.41;;;5.06
18713;BMP280;9485;49.386;8.674;2023-02-15T01:04:02;101929.78;;;5.08
18713;BMP280;9485;49.386;8.674;2023-02-15T01:09:24;101923.41;;;5.08
18713;BMP280;9485;49.386;8.674;2023-02-15T01:14:45;101911.38;;;5.07
18713;BMP280;9485;49.386;8.674;2023-02-15T01:20:07;101909.00;;;5.06
18713;BMP280;9485;49.386;8.674;2023-02-15T01:25:29;101901.88;;;5.01
18713;BMP280;9485;49.386;8.674;2023-02-15T01:30:49;101923.00;;;5.06
18713;BMP280;9485;49.386;8.674;2023-02-15T01:36:10;101925.81;;;5.06
18713;BMP280;9485;49.386;8.674;2023-02-15T01:41:33;101926.53;;;5.10
18713;BMP280;9485;49.386;8.674;2023-02-15T01:46:54;101906.53;;;5.11
18713;BMP280;9485;49.386;8.674;2023-02-15T01:52:17;101905.63;;;5.18
18713;BMP280;9485;49.386;8.674;2023-02-15T01:57:40;101903.97;;;5.20
18713;BMP280;9485;49.386;8.674;2023-02-15T02:03:03;101896.75;;;5.22
18713;BMP280;9485;49.386;8.674;2023-02-15T02:08:24;101901.16;;;5.20
18713;BMP280;9485;49.386;8.674;2023-02-15T02:13:50;101901.53;;;5.22
18713;BMP280;9485;49.386;8.674;2023-02-15T02:20:05;101890.72;;;5.24
18713;BMP280;9485;49.386;8.674;2023-02-15T02:25:56;101888.28;;;5.26
18713;BMP280;9485;49.386;8.674;2023-02-15T02:31:44;101875.06;;;5.26
18713;BMP280;9485;49.386;8.674;2023-02-15T02:37:19;101871.44;;;5.29
18713;BMP280;9485;49.386;8.674;2023-02-15T02:42:49;101861.06;;;5.26
18713;BMP280;9485;49.386;8.674;2023-02-15T02:48:17;101861.06;;;5.26
18713;BMP280;9485;49.386;8.674;2023-02-15T02:53:43;101857.47;;;5.26
18713;BMP280;9485;49.386;8.674;2023-02-15T02:59:11;101848.69;;;5.24
18713;BMP280;9485;49.386;8.674;2023-02-15T03:04:36;101834.25;;;5.25
18713;BMP280;9485;49.386;8.674;2023-02-15T03:10:02;101845.34;;;5.32
18713;BMP280;9485;49.386;8.674;2023-02-15T03:15:29;101830.50;;;5.35
18713;BMP280;9485;49.386;8.674;2023-02-15T03:21:12;101832.03;;;5.40
18713;BMP280;9485;49.386;8.674;2023-02-15T03:26:47;101838.78;;;5.42
18713;BMP280;9485;49.386;8.674;2023-02-15T03:32:11;101841.97;;;5.41
18713;BMP280;9485;49.386;8.674;2023-02-15T03:37:39;101841.13;;;5.44
18713;BMP280;9485;49.386;8.674;2023-02-15T03:43:11;101845.84;;;5.50
18713;BMP280;9485;49.386;8.674;2023-02-15T03:48:37;101854.59;;;5.52
18713;BMP280;9485;49.386;8.674;2023-02-15T03:54:00;101853.88;;;5.48
18713;BMP280;9485;49.386;8.674;2023-02-15T03:59:23;101860.63;;;5.51
18713;BMP280;9485;49.386;8.674;2023-02-15T04:05:01;101855.53;;;5.46
18713;BMP280;9485;49.386;8.674;2023-02-15T04:10:21;101854.31;;;5.47
18713;BMP280;9485;49.386;8.674;2023-02-15T04:16:01;101856.69;;;5.48
18713;BMP280;9485;49.386;8.674;2023-02-15T04:21:28;101849.84;;;5.49
18713;BMP280;9485;49.386;8.674;2023-02-15T04:27:07;101850.19;;;5.51
18713;BMP280;9485;49.386;8.674;2023-02-15T04:32:29;101834.63;;;5.50
18713;BMP280;9485;49.386;8.674;2023-02-15T04:37:50;101834.63;;;5.50
18713;BMP280;9485;49.386;8.674;2023-02-15T04:43:10;101832.66;;;5.47
18713;BMP280;9485;49.386;8.674;2023-02-15T04:48:32;101815.41;;;5.49
18713;BMP280;9485;49.386;8.674;2023-02-15T04:53:54;101805.72;;;5.53
18713;BMP280;9485;49.386;8.674;2023-02-15T04:59:16;101805.72;;;5.53
18713;BMP280;9485;49.386;8.674;2023-02-15T05:04:38;101804.16;;;5.52
18713;BMP280;9485;49.386;8.674;2023-02-15T05:09:58;101809.81;;;5.49
18713;BMP280;9485;49.386;8.674;2023-02-15T05:15:18;101823.81;;;5.49
18713;BMP280;9485;49.386;8.674;2023-02-15T05:20:40;101807.00;;;5.49
18713;BMP280;9485;49.386;8.674;2023-02-15T05:26:02;101816.28;;;5.46
18713;BMP280;9485;49.386;8.674;2023-02-15T05:31:40;101807.53;;;5.44
18713;BMP280;9485;49.386;8.674;2023-02-15T05:37:04;101805.03;;;5.49
18713;BMP280;9485;49.386;8.674;2023-02-15T05:42:27;101815.72;;;5.54
18713;BMP280;9485;49.386;8.674;2023-02-15T05:47:47;101813.63;;;5.58
18713;BMP280;9485;49.386;8.674;2023-02-15T05:53:09;101816.03;;;5.60
18713;BMP280;9485;49.386;8.674;2023-02-15T05:58:33;101823.63;;;5.59
18713;BMP280;9485;49.386;8.674;2023-02-15T06:03:54;101834.44;;;5.61
18713;BMP280;9485;49.386;8.674;2023-02-15T06:09:16;101837.16;;;5.64
18713;BMP280;9485;49.386;8.674;2023-02-15T06:14:38;101821.06;;;5.68
18713;BMP280;9485;49.386;8.674;2023-02-15T06:19:59;101823.78;;;5.72
18713;BMP280;9485;49.386;8.674;2023-02-15T06:25:21;101836.22;;;5.71
18713;BMP280;9485;49.386;8.674;2023-02-15T06:30:42;101847.44;;;5.71
18713;BMP280;9485;49.386;8.674;2023-02-15T06:36:02;101846.16;;;5.75
18713;BMP280;9485;49.386;8.674;2023-02-15T06:41:25;101853.31;;;5.80
18713;BMP280;9485;49.386;8.674;2023-02-15T06:46:45;101854.03;;;5.84
18713;BMP280;9485;49.386;8.674;2023-02-15T06:52:06;101854.03;;;5.84
18713;BMP280;9485;49.386;8.674;2023-02-15T06:57:28;101851.72;;;5.79
18713;BMP280;9485;49.386;8.674;2023-02-15T07:02:54;101849.03;;;5.72
18713;BMP280;9485;49.386;8.674;2023-02-15T07:08:16;101854.81;;;5.61
18713;BMP280;9485;49.386;8.674;2023-02-15T07:13:40;101864.88;;;5.59
18713;BMP280;9485;49.386;8.674;2023-02-15T07:19:01;101858.34;;;5.65
18713;BMP280;9485;49.386;8.674;2023-02-15T07:24:23;101857.25;;;5.59
18713;BMP280;9485;49.386;8.674;2023-02-15T07:29:45;101873.06;;;5.50
18713;BMP280;9485;49.386;8.674;2023-02-15T07:35:06;101873.06;;;5.50
18713;BMP280;9485;49.386;8.674;2023-02-15T07:40:27;101868.59;;;5.52
18713;BMP280;9485;49.386;8.674;2023-02-15T07:45:48;101877.81;;;5.53
18713;BMP280;9485;49.386;8.674;2023-02-15T07:51:11;101853.38;;;5.53
18713;BMP280;9485;49.386;8.674;2023-02-15T07:56:32;101847.81;;;5.50
18713;BMP280;9485;49.386;8.674;2023-02-15T08:01:54;101850.63;;;5.50
18713;BMP280;9485;49.386;8.674;2023-02-15T08:07:15;101856.59;;;5.52
18713;BMP280;9485;49.386;8.674;2023-02-15T08:12:36;101852.72;;;5.46
18713;BMP280;9485;49.386;8.674;2023-02-15T08:17:58;101834.81;;;5.40
18713;BMP280;9485;49.386;8.674;2023-02-15T08:23:18;101850.75;;;5.43
18713;BMP280;9485;49.386;8.674;2023-02-15T08:28:40;101845.47;;;5.48
18713;BMP280;9485;49.386;8.674;2023-02-15T08:34:03;101835.97;;;5.62
18713;BMP280;9485;49.386;8.674;2023-02-15T08:39:24;101829.41;;;5.72
18713;BMP280;9485;49.386;8.674;2023-02-15T08:44:44;101838.91;;;5.78
18713;BMP280;9485;49.386;8.674;2023-02-15T08:50:08;101825.22;;;5.83
18713;BMP280;9485;49.386;8.674;2023-02-15T08:55:29;101827.56;;;5.85
18713;BMP280;9485;49.386;8.674;2023-02-15T09:00:50;101820.31;;;5.87
18713;BMP280;9485;49.386;8.674;2023-02-15T09:06:12;101809.91;;;5.88
18713;BMP280;9485;49.386;8.674;2023-02-15T09:11:36;101822.56;;;5.96
18713;BMP280;9485;49.386;8.674;2023-02-15T09:16:57;101814.69;;;6.06
18713;BMP280;9485;49.386;8.674;2023-02-15T09:22:19;101806.84;;;6.17
18713;BMP280;9485;49.386;8.674;2023-02-15T09:27:39;101805.22;;;6.36
18713;BMP280;9485;49.386;8.674;2023-02-15T09:33:00;101793.59;;;6.37
18713;BMP280;9485;49.386;8.674;2023-02-15T09:38:22;101799.28;;;6.34
18713;BMP280;9485;49.386;8.674;2023-02-15T09:43:57;101795.94;;;6.39
18713;BMP280;9485;49.386;8.674;2023-02-15T09:49:32;101795.63;;;6.53
18713;BMP280;9485;49.386;8.674;2023-02-15T09:55:14;101792.66;;;6.60
18713;BMP280;9485;49.386;8.674;2023-02-15T10:00:47;101800.19;;;6.63
18713;BMP280;9485;49.386;8.674;2023-02-15T10:06:29;101795.03;;;6.77
18713;BMP280;9485;49.386;8.674;2023-02-15T10:12:30;101795.38;;;6.95
18713;BMP280;9485;49.386;8.674;2023-02-15T10:18:14;101803.63;;;7.02
18713;BMP280;9485;49.386;8.674;2023-02-15T10:24:04;101804.84;;;7.01
18713;BMP280;9485;49.386;8.674;2023-02-15T10:29:35;101811.19;;;7.05
18713;BMP280;9485;49.386;8.674;2023-02-15T10:35:03;101816.72;;;7.08
18713;BMP280;9485;49.386;8.674;2023-02-15T10:40:40;101813.38;;;7.13
18713;BMP280;9485;49.386;8.674;2023-02-15T10:46:21;101820.59;;;7.14
18713;BMP280;9485;49.386;8.674;2023-02-15T10:51:59;101824.97;;;7.15
18713;BMP280;9485;49.386;8.674;2023-02-15T10:57:32;101818.53;;;7.15
18713;BMP280;9485;49.386;8.674;2023-02-15T11:03:34;101808.22;;;7.12
18713;BMP280;9485;49.386;8.674;2023-02-15T11:09:02;101806.81;;;7.20
18713;BMP280;9485;49.386;8.674;2023-02-15T11:14:33;101790.19;;;7.25
18713;BMP280;9485;49.386;8.674;2023-02-15T11:20:07;101795.09;;;7.37
18713;BMP280;9485;49.386;8.674;2023-02-15T11:25:33;101793.59;;;7.48
18713;BMP280;9485;49.386;8.674;2023-02-15T11:31:25;101780.50;;;7.70
18713;BMP280;9485;49.386;8.674;2023-02-15T11:36:49;101768.16;;;7.80
18713;BMP280;9485;49.386;8.674;2023-02-15T11:42:15;101754.03;;;8.09
18713;BMP280;9485;49.386;8.674;2023-02-15T11:47:37;101752.66;;;8.41
18713;BMP280;9485;49.386;8.674;2023-02-15T11:53:02;101747.34;;;8.68
18713;BMP280;9485;49.386;8.674;2023-02-15T11:58:32;101736.25;;;8.98
18713;BMP280;9485;49.386;8.674;2023-02-15T12:04:01;101737.97;;;9.30
18713;BMP280;9485;49.386;8.674;2023-02-15T12:09:33;101730.84;;;9.38
18713;BMP280;9485;49.386;8.674;2023-02-15T12:14:57;101715.91;;;9.50
18713;BMP280;9485;49.386;8.674;2023-02-15T12:20:27;101713.94;;;9.80
18713;BMP280;9485;49.386;8.674;2023-02-15T12:25:53;101697.19;;;10.07
18713;BMP280;9485;49.386;8.674;2023-02-15T12:31:22;101698.91;;;10.92
18713;BMP280;9485;49.386;8.674;2023-02-15T12:36:47;101691.09;;;11.59
18713;BMP280;9485;49.386;8.674;2023-02-15T12:42:16;101696.22;;;11.96
18713;BMP280;9485;49.386;8.674;2023-02-15T12:47:39;101674.88;;;12.27
18713;BMP280;9485;49.386;8.674;2023-02-15T12:53:07;101670.59;;;13.34
18713;BMP280;9485;49.386;8.674;2023-02-15T12:58:32;101672.63;;;14.00
18713;BMP280;9485;49.386;8.674;2023-02-15T13:04:00;101672.63;;;14.63
18713;BMP280;9485;49.386;8.674;2023-02-15T13:09:35;101662.88;;;15.04
18713;BMP280;9485;49.386;8.674;2023-02-15T13:14:59;101654.84;;;15.42
18713;BMP280;9485;49.386;8.674;2023-02-15T13:20:22;101657.34;;;15.60
18713;BMP280;9485;49.386;8.674;2023-02-15T13:25:45;101648.81;;;15.60
18713;BMP280;9485;49.386;8.674;2023-02-15T13:31:15;101644.88;;;15.32
18713;BMP280;9485;49.386;8.674;2023-02-15T13:36:47;101646.00;;;15.40
18713;BMP280;9485;49.386;8.674;2023-02-15T13:42:19;101635.63;;;15.37
18713;BMP280;9485;49.386;8.674;2023-02-15T13:47:50;101619.34;;;14.98
18713;BMP280;9485;49.386;8.674;2023-02-15T13:53:32;101609.03;;;14.61
18713;BMP280;9485;49.386;8.674;2023-02-15T13:59:37;101607.47;;;14.26
18713;BMP280;9485;49.386;8.674;2023-02-15T14:05:33;101611.63;;;14.10
18713;BMP280;9485;49.386;8.674;2023-02-15T14:11:04;101604.66;;;13.97
18713;BMP280;9485;49.386;8.674;2023-02-15T14:16:39;101601.84;;;13.53
18713;BMP280;9485;49.386;8.674;2023-02-15T14:22:13;101590.66;;;13.36
18713;BMP280;9485;49.386;8.674;2023-02-15T14:27:49;101599.47;;;13.23
18713;BMP280;9485;49.386;8.674;2023-02-15T14:33:33;101598.53;;;13.03
18713;BMP280;9485;49.386;8.674;2023-02-15T14:39:15;101598.06;;;12.58
18713;BMP280;9485;49.386;8.674;2023-02-15T14:45:01;101585.38;;;12.21
18713;BMP280;9485;49.386;8.674;2023-02-15T14:50:43;101588.69;;;11.87
18713;BMP280;9485;49.386;8.674;2023-02-15T14:56:20;101584.16;;;11.81
18713;BMP280;9485;49.386;8.674;2023-02-15T15:01:42;101570.22;;;11.59
18713;BMP280;9485;49.386;8.674;2023-02-15T15:07:20;101573.38;;;11.43
18713;BMP280;9485;49.386;8.674;2023-02-15T15:12:45;101577.66;;;11.30
18713;BMP280;9485;49.386;8.674;2023-02-15T15:18:07;101573.56;;;11.22
18713;BMP280;9485;49.386;8.674;2023-02-15T15:23:44;101569.03;;;11.16
18713;BMP280;9485;49.386;8.674;2023-02-15T15:29:06;101572.66;;;11.07
18713;BMP280;9485;49.386;8.674;2023-02-15T15:35:00;101575.47;;;10.98
18713;BMP280;9485;49.386;8.674;2023-02-15T15:41:13;101570.78;;;10.95
18713;BMP280;9485;49.386;8.674;2023-02-15T15:47:17;101580.84;;;10.96
18713;BMP280;9485;49.386;8.674;2023-02-15T15:52:48;101583.50;;;10.91
18713;BMP280;9485;49.386;8.674;2023-02-15T15:58:16;101574.88;;;10.76
18713;BMP280;9485;49.386;8.674;2023-02-15T16:03:38;101579.72;;;10.58
18713;BMP280;9485;49.386;8.674;2023-02-15T16:09:15;101581.41;;;10.38
18713;BMP280;9485;49.386;8.674;2023-02-15T16:14:39;101587.44;;;10.18
18713;BMP280;9485;49.386;8.674;2023-02-15T16:20:12;101588.56;;;9.90
18713;BMP280;9485;49.386;8.674;2023-02-15T16:25:46;101590.72;;;9.47
18713;BMP280;9485;49.386;8.674;2023-02-15T16:31:13;101595.00;;;9.09
18713;BMP280;9485;49.386;8.674;2023-02-15T16:36:37;101603.59;;;8.72
18713;BMP280;9485;49.386;8.674;2023-02-15T16:41:57;101606.28;;;8.41
18713;BMP280;9485;49.386;8.674;2023-02-15T16:47:26;101611.00;;;8.07
18713;BMP280;9485;49.386;8.674;2023-02-15T16:52:51;101617.53;;;7.79
18713;BMP280;9485;49.386;8.674;2023-02-15T16:58:17;101621.09;;;7.55
18713;BMP280;9485;49.386;8.674;2023-02-15T17:03:40;101621.84;;;7.31
18713;BMP280;9485;49.386;8.674;2023-02-15T17:09:06;101621.66;;;7.09
18713;BMP280;9485;49.386;8.674;2023-02-15T17:14:30;101622.16;;;6.92
18713;BMP280;9485;49.386;8.674;2023-02-15T17:19:54;101608.94;;;6.76
18713;BMP280;9485;49.386;8.674;2023-02-15T17:25:25;101603.78;;;6.59
18713;BMP280;9485;49.386;8.674;2023-02-15T17:30:46;101597.69;;;6.48
18713;BMP280;9485;49.386;8.674;2023-02-15T17:36:11;101601.22;;;6.36
18713;BMP280;9485;49.386;8.674;2023-02-15T17:41:36;101604.03;;;6.20
18713;BMP280;9485;49.386;8.674;2023-02-15T17:46:57;101607.25;;;6.03
18713;BMP280;9485;49.386;8.674;2023-02-15T17:52:18;101607.69;;;5.86
18713;BMP280;9485;49.386;8.674;2023-02-15T17:57:40;101599.94;;;5.74
18713;BMP280;9485;49.386;8.674;2023-02-15T18:03:00;101602.97;;;5.63
18713;BMP280;9485;49.386;8.674;2023-02-15T18:08:39;101613.91;;;5.58
18713;BMP280;9485;49.386;8.674;2023-02-15T18:14:18;101610.03;;;5.52
18713;BMP280;9485;49.386;8.674;2023-02-15T18:19:41;101602.63;;;5.42
18713;BMP280;9485;49.386;8.674;2023-02-15T18:25:02;101595.75;;;5.27
18713;BMP280;9485;49.386;8.674;2023-02-15T18:30:24;101593.84;;;5.24
18713;BMP280;9485;49.386;8.674;2023-02-15T18:35:45;101593.63;;;5.15
18713;BMP280;9485;49.386;8.674;2023-02-15T18:41:16;101593.31;;;5.10
18713;BMP280;9485;49.386;8.674;2023-02-15T18:46:38;101589.91;;;5.02
18713;BMP280;9485;49.386;8.674;2023-02-15T18:52:01;101608.47;;;4.93
18713;BMP280;9485;49.386;8.674;2023-02-15T18:57:22;101615.56;;;4.78
18713;BMP280;9485;49.386;8.674;2023-02-15T19:02:44;101596.75;;;4.59
18713;BMP280;9485;49.386;8.674;2023-02-15T19:08:16;101596.38;;;4.57
18713;BMP280;9485;49.386;8.674;2023-02-15T19:13:37;101582.53;;;4.50
18713;BMP280;9485;49.386;8.674;2023-02-15T19:19:00;101587.69;;;4.51
18713;BMP280;9485;49.386;8.674;2023-02-15T19:24:25;101576.56;;;4.48
18713;BMP280;9485;49.386;8.674;2023-02-15T19:29:49;101570.31;;;4.41
18713;BMP280;9485;49.386;8.674;2023-02-15T19:35:15;101582.78;;;4.36
18713;BMP280;9485;49.386;8.674;2023-02-15T19:40:37;101571.59;;;4.36
18713;BMP280;9485;49.386;8.674;2023-02-15T19:45:58;101561.69;;;4.32
18713;BMP280;9485;49.386;8.674;2023-02-15T19:51:22;101558.09;;;4.31
18713;BMP280;9485;49.386;8.674;2023-02-15T19:56:43;101569.69;;;4.30
18713;BMP280;9485;49.386;8.674;2023-02-15T20:02:04;101574.56;;;4.26
18713;BMP280;9485;49.386;8.674;2023-02-15T20:07:27;101569.94;;;4.16
18713;BMP280;9485;49.386;8.674;2023-02-15T20:12:48;101567.75;;;4.04
18713;BMP280;9485;49.386;8.674;2023-02-15T20:18:09;101567.94;;;3.93
18713;BMP280;9485;49.386;8.674;2023-02-15T20:23:34;101565.69;;;3.85
18713;BMP280;9485;49.386;8.674;2023-02-15T20:28:55;101579.28;;;3.83
18713;BMP280;9485;49.386;8.674;2023-02-15T20:34:16;101566.91;;;3.84
18713;BMP280;9485;49.386;8.674;2023-02-15T20:39:38;101568.94;;;3.80
18713;BMP280;9485;49.386;8.674;2023-02-15T20:44:58;101569.88;;;3.73
18713;BMP280;9485;49.386;8.674;2023-02-15T20:50:22;101584.56;;;3.77
18713;BMP280;9485;49.386;8.674;2023-02-15T20:55:44;101584.22;;;3.75
18713;BMP280;9485;49.386;8.674;2023-02-15T21:01:09;101592.69;;;3.69
18713;BMP280;9485;49.386;8.674;2023-02-15T21:06:30;101601.97;;;3.62
18713;BMP280;9485;49.386;8.674;2023-02-15T21:11:54;101595.69;;;3.55
18713;BMP280;9485;49.386;8.674;2023-02-15T21:17:16;101596.91;;;3.54
18713;BMP280;9485;49.386;8.674;2023-02-15T21:22:36;101610.91;;;3.50
18713;BMP280;9485;49.386;8.674;2023-02-15T21:28:00;101622.16;;;3.47
18713;BMP280;9485;49.386;8.674;2023-02-15T21:33:20;101607.94;;;3.34
18713;BMP280;9485;49.386;8.674;2023-02-15T21:38:42;101601.97;;;3.32
18713;BMP280;9485;49.386;8.674;2023-02-15T21:44:15;101610.00;;;3.30
18713;BMP280;9485;49.386;8.674;2023-02-15T21:49:54;101599.72;;;3.24
18713;BMP280;9485;49.386;8.674;2023-02-15T21:55:15;101594.56;;;3.22
18713;BMP280;9485;49.386;8.674;2023-02-15T22:00:37;101597.34;;;3.22
18713;BMP280;9485;49.386;8.674;2023-02-15T22:05:57;101586.56;;;3.21
18713;BMP280;9485;49.386;8.674;2023-02-15T22:11:20;101591.00;;;3.18
18713;BMP280;9485;49.386;8.674;2023-02-15T22:16:42;101600.97;;;3.19
18713;BMP280;9485;49.386;8.674;2023-02-15T22:22:03;101598.53;;;3.21
18713;BMP280;9485;49.386;8.674;2023-02-15T22:27:25;101605.72;;;3.22
18713;BMP280;9485;49.386;8.674;2023-02-15T22:32:49;101605.72;;;3.22
18713;BMP280;9485;49.386;8.674;2023-02-15T22:38:10;101616.88;;;3.22
18713;BMP280;9485;49.386;8.674;2023-02-15T22:43:36;101618.09;;;3.21
18713;BMP280;9485;49.386;8.674;2023-02-15T22:48:59;101605.38;;;3.17
18713;BMP280;9485;49.386;8.674;2023-02-15T22:54:19;101606.59;;;3.16
18713;BMP280;9485;49.386;8.674;2023-02-15T22:59:40;101600.97;;;3.19
18713;BMP280;9485;49.386;8.674;2023-02-15T23:05:01;101592.97;;;3.21
18713;BMP280;9485;49.386;8.674;2023-02-15T23:10:24;101596.88;;;3.27
18713;BMP280;9485;49.386;8.674;2023-02-15T23:15:49;101587.63;;;3.34
18713;BMP280;9485;49.386;8.674;2023-02-15T23:21:18;101587.63;;;3.34
18713;BMP280;9485;49.386;8.674;2023-02-15T23:26:40;101572.84;;;3.33
18713;BMP280;9485;49.386;8.674;2023-02-15T23:32:00;101577.28;;;3.31
18713;BMP280;9485;49.386;8.674;2023-02-15T23:37:22;101576.91;;;3.29
18713;BMP280;9485;49.386;8.674;2023-02-15T23:42:43;101580.91;;;3.28
18713;BMP280;9485;49.386;8.674;2023-02-15T23:48:21;101594.06;;;3.27
18713;BMP280;9485;49.386;8.674;2023-02-15T23:53:52;101573.75;;;3.27
18713;BMP280;9485;49.386;8.674;2023-02-15T23:59:18;101563.41;;;3.24
